Atlantica — V7NB5 — position and weather

sailwx.info

Track history (hours):
 
Tides and Currents Weather Stations Pressure Air Temp Water Temp Dewpoint Dewpoint Depression Visibility Wind Speed Wind Dir Waves Ship Positions

Atlantica

Last reported at 2015-Jan-22 12:33 UTC. Time now 2015-Jan-29 20:27 UTC.
Position N 18°19' W 064°50'.

Length 45 m; draft 2.9 m.

Type: Pleasure craft. MMSI: 538070397.

Date/timePositionNaut miles runAvg speedWind from/ knotsBaromVisibWave heightAir tempDewpointWater temp
2015-Jan-22 12:33N 18°19' W 064°50'6 5.7
2015-Jan-22 11:33N 18°22' W 064°45'0 0.0
2015-Jan-22 10:33N 18°22' W 064°45'0 0.0
2015-Jan-22 09:33N 18°22' W 064°45'0 0.0
2015-Jan-22 08:33N 18°22' W 064°45'0 0.0
2015-Jan-22 07:33N 18°22' W 064°45'0 0.0
2015-Jan-22 06:33N 18°22' W 064°45'0 0.0
2015-Jan-22 05:33N 18°22' W 064°45'0 0.0
2015-Jan-22 04:33N 18°22' W 064°45'0 0.0
2015-Jan-22 03:33N 18°22' W 064°45'0 0.0
2015-Jan-22 02:32N 18°22' W 064°45'6 6.0
2015-Jan-22 01:33N 18°26' W 064°41'6 2.7
2015-Jan-21 23:14N 18°28' W 064°35'0 0.0
2015-Jan-21 22:40N 18°28' W 064°35'0 0.0
2015-Jan-21 22:33N 18°28' W 064°35'0 0.0
2015-Jan-21 21:30N 18°28' W 064°35'6 0.6
2015-Jan-21 11:26N 18°25' W 064°29'7 0.2
2015-Jan-19 21:24N 18°21' W 064°35'3 0.1
2015-Jan-18 20:27N 18°20' W 064°38'6 6.9
2015-Jan-18 19:33N 18°25' W 064°41'5 5.0
2015-Jan-18 18:33N 18°26' W 064°46'0 0.0
2015-Jan-18 17:33N 18°26' W 064°46'0 0.0
2015-Jan-18 16:33N 18°26' W 064°46'0 0.0
2015-Jan-18 15:33N 18°26' W 064°46'0 0.0
2015-Jan-18 14:33N 18°26' W 064°46'0 0.0
2015-Jan-18 13:33N 18°26' W 064°46'0 0.0
2015-Jan-18 12:33N 18°26' W 064°46'5 4.5
2015-Jan-18 11:33N 18°22' W 064°45'0 0.0
2015-Jan-18 10:33N 18°22' W 064°45'0 0.0
2015-Jan-18 09:33N 18°22' W 064°45'0 0.0
2015-Jan-18 08:33N 18°22' W 064°45'0 0.0
2015-Jan-18 07:33N 18°22' W 064°45'0 0.0
2015-Jan-18 06:33N 18°22' W 064°45'0 0.0
2015-Jan-18 05:33N 18°22' W 064°45'0 0.0
2015-Jan-18 04:33N 18°22' W 064°45'0 0.0
2015-Jan-18 03:33N 18°22' W 064°45'0 0.0
2015-Jan-18 02:33N 18°22' W 064°45'0 0.0
2015-Jan-18 01:33N 18°22' W 064°45'0 0.0
2015-Jan-18 00:33N 18°22' W 064°45'0 0.0
2015-Jan-17 23:33N 18°22' W 064°45'0 0.0
2015-Jan-17 22:33N 18°22' W 064°45'0 0.0
2015-Jan-17 21:33N 18°22' W 064°45'0 0.0
2015-Jan-17 20:33N 18°22' W 064°45'0 0.0
2015-Jan-17 19:33N 18°22' W 064°45'0 0.0
2015-Jan-17 18:33N 18°22' W 064°45'0 0.0
2015-Jan-17 17:33N 18°22' W 064°45'0 0.0
2015-Jan-17 16:33N 18°22' W 064°45'0 0.0
2015-Jan-17 15:33N 18°22' W 064°45'0 0.0
2015-Jan-17 14:33N 18°22' W 064°45'0 0.0
2015-Jan-17 13:33N 18°22' W 064°45'  
Track history (hours):
 
Tides and Currents Weather Stations Pressure Air Temp Water Temp Dewpoint Dewpoint Depression Visibility Wind Speed Wind Dir Waves Ship Positions

Atlantica

Last reported at 2015-Jan-22 12:33 UTC. Time now 2015-Jan-29 20:27 UTC.
Position N 18°19' W 064°50'.

Length 45 m; draft 2.9 m.

Type: Pleasure craft. MMSI: 538070397.

Date/timePositionNaut miles runAvg speedWind from/ knotsBaromVisibWave heightAir tempDewpointWater temp
2015-Jan-22 12:33N 18°19' W 064°50'6 5.7
2015-Jan-22 11:33N 18°22' W 064°45'0 0.0
2015-Jan-22 10:33N 18°22' W 064°45'0 0.0
2015-Jan-22 09:33N 18°22' W 064°45'0 0.0
2015-Jan-22 08:33N 18°22' W 064°45'0 0.0
2015-Jan-22 07:33N 18°22' W 064°45'0 0.0
2015-Jan-22 06:33N 18°22' W 064°45'0 0.0
2015-Jan-22 05:33N 18°22' W 064°45'0 0.0
2015-Jan-22 04:33N 18°22' W 064°45'0 0.0
2015-Jan-22 03:33N 18°22' W 064°45'0 0.0
2015-Jan-22 02:32N 18°22' W 064°45'6 6.0
2015-Jan-22 01:33N 18°26' W 064°41'6 2.7
2015-Jan-21 23:14N 18°28' W 064°35'0 0.0
2015-Jan-21 22:40N 18°28' W 064°35'0 0.0
2015-Jan-21 22:33N 18°28' W 064°35'0 0.0
2015-Jan-21 21:30N 18°28' W 064°35'6 0.6
2015-Jan-21 11:26N 18°25' W 064°29'7 0.2
2015-Jan-19 21:24N 18°21' W 064°35'3 0.1
2015-Jan-18 20:27N 18°20' W 064°38'6 6.9
2015-Jan-18 19:33N 18°25' W 064°41'5 5.0
2015-Jan-18 18:33N 18°26' W 064°46'0 0.0
2015-Jan-18 17:33N 18°26' W 064°46'0 0.0
2015-Jan-18 16:33N 18°26' W 064°46'0 0.0
2015-Jan-18 15:33N 18°26' W 064°46'0 0.0
2015-Jan-18 14:33N 18°26' W 064°46'0 0.0
2015-Jan-18 13:33N 18°26' W 064°46'0 0.0
2015-Jan-18 12:33N 18°26' W 064°46'5 4.5
2015-Jan-18 11:33N 18°22' W 064°45'0 0.0
2015-Jan-18 10:33N 18°22' W 064°45'0 0.0
2015-Jan-18 09:33N 18°22' W 064°45'0 0.0
2015-Jan-18 08:33N 18°22' W 064°45'0 0.0
2015-Jan-18 07:33N 18°22' W 064°45'0 0.0
2015-Jan-18 06:33N 18°22' W 064°45'0 0.0
2015-Jan-18 05:33N 18°22' W 064°45'0 0.0
2015-Jan-18 04:33N 18°22' W 064°45'0 0.0
2015-Jan-18 03:33N 18°22' W 064°45'0 0.0
2015-Jan-18 02:33N 18°22' W 064°45'0 0.0
2015-Jan-18 01:33N 18°22' W 064°45'0 0.0
2015-Jan-18 00:33N 18°22' W 064°45'0 0.0
2015-Jan-17 23:33N 18°22' W 064°45'0 0.0
2015-Jan-17 22:33N 18°22' W 064°45'0 0.0
2015-Jan-17 21:33N 18°22' W 064°45'0 0.0
2015-Jan-17 20:33N 18°22' W 064°45'0 0.0
2015-Jan-17 19:33N 18°22' W 064°45'0 0.0
2015-Jan-17 18:33N 18°22' W 064°45'0 0.0
2015-Jan-17 17:33N 18°22' W 064°45'0 0.0
2015-Jan-17 16:33N 18°22' W 064°45'0 0.0
2015-Jan-17 15:33N 18°22' W 064°45'0 0.0
2015-Jan-17 14:33N 18°22' W 064°45'0 0.0
2015-Jan-17 13:33N 18°22' W 064°45'  

Dump ship's entire track history